sensor_id;sensor_type;location;lat;lon;timestamp;P1;durP1;ratioP1;P2;durP2;ratioP2
14890;SDS011;7537;48.014;11.590;2023-07-28T00:04:26;3.06;;;2.41;;
14890;SDS011;7537;48.014;11.590;2023-07-28T00:09:53;2.39;;;2.51;;
14890;SDS011;7537;48.014;11.590;2023-07-28T00:15:21;2.98;;;2.72;;
14890;SDS011;7537;48.014;11.590;2023-07-28T00:20:49;2.69;;;2.19;;
14890;SDS011;7537;48.014;11.590;2023-07-28T00:26:17;2.73;;;2.31;;
14890;SDS011;7537;48.014;11.590;2023-07-28T00:31:44;2.64;;;2.10;;
14890;SDS011;7537;48.014;11.590;2023-07-28T00:37:12;2.63;;;2.36;;
14890;SDS011;7537;48.014;11.590;2023-07-28T00:42:39;3.20;;;1.96;;
14890;SDS011;7537;48.014;11.590;2023-07-28T00:48:12;2.17;;;2.11;;
14890;SDS011;7537;48.014;11.590;2023-07-28T00:53:39;2.21;;;1.98;;
14890;SDS011;7537;48.014;11.590;2023-07-28T00:59:08;1.82;;;1.94;;
14890;SDS011;7537;48.014;11.590;2023-07-28T01:04:36;2.06;;;1.97;;
14890;SDS011;7537;48.014;11.590;2023-07-28T01:10:05;1.69;;;1.77;;
14890;SDS011;7537;48.014;11.590;2023-07-28T01:15:37;2.75;;;1.91;;
14890;SDS011;7537;48.014;11.590;2023-07-28T01:21:05;2.23;;;1.99;;
14890;SDS011;7537;48.014;11.590;2023-07-28T01:26:33;3.91;;;1.96;;
14890;SDS011;7537;48.014;11.590;2023-07-28T01:32:04;1.62;;;1.62;;
14890;SDS011;7537;48.014;11.590;2023-07-28T01:37:35;1.71;;;1.51;;
14890;SDS011;7537;48.014;11.590;2023-07-28T01:43:02;2.08;;;1.99;;
14890;SDS011;7537;48.014;11.590;2023-07-28T01:48:33;5.27;;;2.01;;
14890;SDS011;7537;48.014;11.590;2023-07-28T01:54:00;2.22;;;2.28;;
14890;SDS011;7537;48.014;11.590;2023-07-28T01:59:31;2.39;;;2.37;;
14890;SDS011;7537;48.014;11.590;2023-07-28T02:04:58;1.91;;;1.87;;
14890;SDS011;7537;48.014;11.590;2023-07-28T02:10:29;1.81;;;1.91;;
14890;SDS011;7537;48.014;11.590;2023-07-28T02:15:56;2.46;;;2.54;;
14890;SDS011;7537;48.014;11.590;2023-07-28T02:21:36;3.92;;;2.34;;
14890;SDS011;7537;48.014;11.590;2023-07-28T02:27:04;1.54;;;1.63;;
14890;SDS011;7537;48.014;11.590;2023-07-28T02:32:32;1.73;;;1.65;;
14890;SDS011;7537;48.014;11.590;2023-07-28T02:38:01;1.92;;;2.02;;
14890;SDS011;7537;48.014;11.590;2023-07-28T02:43:28;1.71;;;1.69;;
14890;SDS011;7537;48.014;11.590;2023-07-28T02:48:59;1.69;;;1.75;;
14890;SDS011;7537;48.014;11.590;2023-07-28T02:54:35;3.34;;;1.80;;
14890;SDS011;7537;48.014;11.590;2023-07-28T03:00:03;2.20;;;1.74;;
14890;SDS011;7537;48.014;11.590;2023-07-28T03:05:31;4.58;;;2.27;;
14890;SDS011;7537;48.014;11.590;2023-07-28T03:10:59;2.73;;;2.35;;
14890;SDS011;7537;48.014;11.590;2023-07-28T03:16:29;1.94;;;2.07;;
14890;SDS011;7537;48.014;11.590;2023-07-28T03:21:56;2.01;;;2.10;;
14890;SDS011;7537;48.014;11.590;2023-07-28T03:27:24;1.92;;;2.06;;
14890;SDS011;7537;48.014;11.590;2023-07-28T03:32:51;1.96;;;1.65;;
14890;SDS011;7537;48.014;11.590;2023-07-28T03:38:18;2.25;;;2.31;;
14890;SDS011;7537;48.014;11.590;2023-07-28T03:43:49;1.54;;;1.58;;
14890;SDS011;7537;48.014;11.590;2023-07-28T03:49:20;1.62;;;1.56;;
14890;SDS011;7537;48.014;11.590;2023-07-28T03:54:47;3.64;;;3.10;;
14890;SDS011;7537;48.014;11.590;2023-07-28T04:00:16;2.45;;;2.18;;
14890;SDS011;7537;48.014;11.590;2023-07-28T04:05:46;1.69;;;1.71;;
14890;SDS011;7537;48.014;11.590;2023-07-28T04:11:14;1.44;;;1.51;;
14890;SDS011;7537;48.014;11.590;2023-07-28T04:16:41;1.72;;;1.71;;
14890;SDS011;7537;48.014;11.590;2023-07-28T04:22:08;3.09;;;1.71;;
14890;SDS011;7537;48.014;11.590;2023-07-28T04:27:42;2.32;;;1.97;;
14890;SDS011;7537;48.014;11.590;2023-07-28T04:33:10;2.25;;;2.18;;
14890;SDS011;7537;48.014;11.590;2023-07-28T04:38:38;2.09;;;1.76;;
14890;SDS011;7537;48.014;11.590;2023-07-28T04:44:06;5.09;;;2.33;;
14890;SDS011;7537;48.014;11.590;2023-07-28T04:49:46;1.54;;;1.64;;
14890;SDS011;7537;48.014;11.590;2023-07-28T04:55:14;1.89;;;1.98;;
14890;SDS011;7537;48.014;11.590;2023-07-28T05:00:42;3.84;;;2.36;;
14890;SDS011;7537;48.014;11.590;2023-07-28T05:06:09;1.79;;;1.89;;
14890;SDS011;7537;48.014;11.590;2023-07-28T05:11:36;2.25;;;2.31;;
14890;SDS011;7537;48.014;11.590;2023-07-28T05:17:04;2.00;;;2.06;;
14890;SDS011;7537;48.014;11.590;2023-07-28T05:22:32;3.31;;;2.63;;
14890;SDS011;7537;48.014;11.590;2023-07-28T05:27:59;2.99;;;2.81;;
14890;SDS011;7537;48.014;11.590;2023-07-28T05:33:32;2.93;;;2.53;;
14890;SDS011;7537;48.014;11.590;2023-07-28T05:39:00;2.59;;;2.66;;
14890;SDS011;7537;48.014;11.590;2023-07-28T05:44:28;4.56;;;1.94;;
14890;SDS011;7537;48.014;11.590;2023-07-28T05:49:59;2.42;;;2.47;;
14890;SDS011;7537;48.014;11.590;2023-07-28T05:55:26;2.63;;;2.73;;
14890;SDS011;7537;48.014;11.590;2023-07-28T06:00:53;2.68;;;2.54;;
14890;SDS011;7537;48.014;11.590;2023-07-28T06:06:21;2.59;;;2.46;;
14890;SDS011;7537;48.014;11.590;2023-07-28T06:11:50;2.01;;;2.16;;
14890;SDS011;7537;48.014;11.590;2023-07-28T06:17:18;2.03;;;2.09;;
14890;SDS011;7537;48.014;11.590;2023-07-28T06:22:45;2.48;;;2.37;;
14890;SDS011;7537;48.014;11.590;2023-07-28T06:28:12;2.43;;;2.30;;
14890;SDS011;7537;48.014;11.590;2023-07-28T06:33:40;1.81;;;1.73;;
14890;SDS011;7537;48.014;11.590;2023-07-28T06:39:08;4.29;;;1.87;;
14890;SDS011;7537;48.014;11.590;2023-07-28T06:44:41;1.56;;;1.68;;
14890;SDS011;7537;48.014;11.590;2023-07-28T06:50:18;3.06;;;2.40;;
14890;SDS011;7537;48.014;11.590;2023-07-28T06:55:53;4.71;;;1.97;;
14890;SDS011;7537;48.014;11.590;2023-07-28T07:01:23;2.29;;;2.16;;
14890;SDS011;7537;48.014;11.590;2023-07-28T07:06:50;2.31;;;1.94;;
14890;SDS011;7537;48.014;11.590;2023-07-28T07:12:17;2.22;;;2.24;;
14890;SDS011;7537;48.014;11.590;2023-07-28T07:17:45;3.67;;;2.03;;
14890;SDS011;7537;48.014;11.590;2023-07-28T07:23:12;1.79;;;1.81;;
14890;SDS011;7537;48.014;11.590;2023-07-28T07:28:50;2.06;;;2.11;;
14890;SDS011;7537;48.014;11.590;2023-07-28T07:34:17;3.14;;;1.81;;
14890;SDS011;7537;48.014;11.590;2023-07-28T07:39:45;1.43;;;1.51;;
14890;SDS011;7537;48.014;11.590;2023-07-28T07:45:14;1.91;;;1.92;;
14890;SDS011;7537;48.014;11.590;2023-07-28T07:50:45;2.39;;;2.34;;
14890;SDS011;7537;48.014;11.590;2023-07-28T07:56:13;1.97;;;2.05;;
14890;SDS011;7537;48.014;11.590;2023-07-28T08:01:53;2.15;;;1.99;;
14890;SDS011;7537;48.014;11.590;2023-07-28T08:07:20;1.92;;;2.04;;
14890;SDS011;7537;48.014;11.590;2023-07-28T08:12:48;1.70;;;1.75;;
14890;SDS011;7537;48.014;11.590;2023-07-28T08:18:15;1.83;;;1.94;;
14890;SDS011;7537;48.014;11.590;2023-07-28T08:23:44;1.59;;;1.70;;
14890;SDS011;7537;48.014;11.590;2023-07-28T08:29:11;1.66;;;1.78;;
14890;SDS011;7537;48.014;11.590;2023-07-28T08:34:39;1.89;;;1.70;;
14890;SDS011;7537;48.014;11.590;2023-07-28T08:40:07;1.68;;;1.79;;
14890;SDS011;7537;48.014;11.590;2023-07-28T08:45:35;1.65;;;1.78;;
14890;SDS011;7537;48.014;11.590;2023-07-28T08:51:06;1.68;;;1.78;;
14890;SDS011;7537;48.014;11.590;2023-07-28T08:56:33;1.33;;;1.18;;
14890;SDS011;7537;48.014;11.590;2023-07-28T09:02:01;1.70;;;1.63;;
14890;SDS011;7537;48.014;11.590;2023-07-28T09:07:34;1.67;;;1.77;;
14890;SDS011;7537;48.014;11.590;2023-07-28T09:13:02;2.27;;;1.53;;
14890;SDS011;7537;48.014;11.590;2023-07-28T09:18:30;2.63;;;2.47;;
14890;SDS011;7537;48.014;11.590;2023-07-28T09:24:04;2.41;;;2.32;;
14890;SDS011;7537;48.014;11.590;2023-07-28T09:29:35;1.56;;;1.62;;
14890;SDS011;7537;48.014;11.590;2023-07-28T09:35:09;2.26;;;2.33;;
14890;SDS011;7537;48.014;11.590;2023-07-28T09:40:39;2.42;;;2.21;;
14890;SDS011;7537;48.014;11.590;2023-07-28T09:46:10;1.86;;;1.97;;
14890;SDS011;7537;48.014;11.590;2023-07-28T09:51:41;2.27;;;2.39;;
14890;SDS011;7537;48.014;11.590;2023-07-28T09:57:14;1.66;;;1.72;;
14890;SDS011;7537;48.014;11.590;2023-07-28T10:02:50;3.16;;;2.32;;
14890;SDS011;7537;48.014;11.590;2023-07-28T10:08:17;1.36;;;1.46;;
14890;SDS011;7537;48.014;11.590;2023-07-28T10:13:45;1.96;;;2.07;;
14890;SDS011;7537;48.014;11.590;2023-07-28T10:19:12;3.22;;;1.96;;
14890;SDS011;7537;48.014;11.590;2023-07-28T10:24:53;2.64;;;2.13;;
14890;SDS011;7537;48.014;11.590;2023-07-28T10:30:21;2.17;;;1.73;;
14890;SDS011;7537;48.014;11.590;2023-07-28T10:35:48;1.82;;;1.92;;
14890;SDS011;7537;48.014;11.590;2023-07-28T10:41:17;2.33;;;2.01;;
14890;SDS011;7537;48.014;11.590;2023-07-28T10:46:45;1.98;;;1.99;;
14890;SDS011;7537;48.014;11.590;2023-07-28T10:52:26;1.93;;;1.69;;
14890;SDS011;7537;48.014;11.590;2023-07-28T10:57:54;2.33;;;2.03;;
14890;SDS011;7537;48.014;11.590;2023-07-28T11:03:22;2.66;;;2.28;;
14890;SDS011;7537;48.014;11.590;2023-07-28T11:08:50;2.17;;;1.97;;
14890;SDS011;7537;48.014;11.590;2023-07-28T11:14:18;2.62;;;1.44;;
14890;SDS011;7537;48.014;11.590;2023-07-28T11:19:48;3.20;;;2.12;;
14890;SDS011;7537;48.014;11.590;2023-07-28T11:25:17;2.74;;;1.82;;
14890;SDS011;7537;48.014;11.590;2023-07-28T11:30:45;1.94;;;1.73;;
14890;SDS011;7537;48.014;11.590;2023-07-28T11:36:13;2.11;;;2.08;;
14890;SDS011;7537;48.014;11.590;2023-07-28T11:41:48;1.95;;;2.06;;
14890;SDS011;7537;48.014;11.590;2023-07-28T11:47:17;1.75;;;1.89;;
14890;SDS011;7537;48.014;11.590;2023-07-28T11:52:48;2.31;;;2.39;;
14890;SDS011;7537;48.014;11.590;2023-07-28T11:58:17;3.71;;;2.08;;
14890;SDS011;7537;48.014;11.590;2023-07-28T12:03:46;1.85;;;1.89;;
14890;SDS011;7537;48.014;11.590;2023-07-28T12:09:14;2.41;;;2.31;;
14890;SDS011;7537;48.014;11.590;2023-07-28T12:14:41;1.62;;;1.70;;
14890;SDS011;7537;48.014;11.590;2023-07-28T12:20:10;2.05;;;2.11;;
14890;SDS011;7537;48.014;11.590;2023-07-28T12:25:37;1.89;;;2.00;;
14890;SDS011;7537;48.014;11.590;2023-07-28T12:31:05;2.35;;;2.29;;
14890;SDS011;7537;48.014;11.590;2023-07-28T12:36:32;2.20;;;2.16;;
14890;SDS011;7537;48.014;11.590;2023-07-28T12:42:02;1.93;;;1.94;;
14890;SDS011;7537;48.014;11.590;2023-07-28T12:47:29;1.94;;;2.06;;
14890;SDS011;7537;48.014;11.590;2023-07-28T12:53:00;2.51;;;2.36;;
14890;SDS011;7537;48.014;11.590;2023-07-28T12:58:30;3.03;;;3.00;;
14890;SDS011;7537;48.014;11.590;2023-07-28T13:04:01;2.14;;;2.17;;
14890;SDS011;7537;48.014;11.590;2023-07-28T13:09:28;2.23;;;2.28;;
14890;SDS011;7537;48.014;11.590;2023-07-28T13:14:56;2.98;;;2.27;;
14890;SDS011;7537;48.014;11.590;2023-07-28T13:20:24;4.81;;;2.26;;
14890;SDS011;7537;48.014;11.590;2023-07-28T13:25:52;3.42;;;1.86;;
14890;SDS011;7537;48.014;11.590;2023-07-28T13:31:19;1.66;;;1.76;;
14890;SDS011;7537;48.014;11.590;2023-07-28T13:36:47;2.48;;;2.52;;
14890;SDS011;7537;48.014;11.590;2023-07-28T13:42:15;2.14;;;2.22;;
14890;SDS011;7537;48.014;11.590;2023-07-28T13:47:43;2.62;;;2.12;;
14890;SDS011;7537;48.014;11.590;2023-07-28T13:53:14;3.42;;;1.86;;
14890;SDS011;7537;48.014;11.590;2023-07-28T13:58:42;2.17;;;2.04;;
14890;SDS011;7537;48.014;11.590;2023-07-28T14:04:09;1.94;;;2.04;;
14890;SDS011;7537;48.014;11.590;2023-07-28T14:09:38;2.54;;;2.47;;
14890;SDS011;7537;48.014;11.590;2023-07-28T14:15:07;2.81;;;2.57;;
14890;SDS011;7537;48.014;11.590;2023-07-28T14:20:35;2.10;;;2.13;;
14890;SDS011;7537;48.014;11.590;2023-07-28T14:26:03;2.41;;;2.30;;
14890;SDS011;7537;48.014;11.590;2023-07-28T14:31:31;1.96;;;1.94;;
14890;SDS011;7537;48.014;11.590;2023-07-28T14:37:00;2.57;;;2.71;;
14890;SDS011;7537;48.014;11.590;2023-07-28T14:42:31;2.03;;;2.13;;
14890;SDS011;7537;48.014;11.590;2023-07-28T14:48:00;1.83;;;1.97;;
14890;SDS011;7537;48.014;11.590;2023-07-28T14:53:32;2.04;;;2.16;;
14890;SDS011;7537;48.014;11.590;2023-07-28T14:59:01;2.22;;;2.33;;
14890;SDS011;7537;48.014;11.590;2023-07-28T15:04:28;1.66;;;1.74;;
14890;SDS011;7537;48.014;11.590;2023-07-28T15:09:56;2.31;;;2.34;;
14890;SDS011;7537;48.014;11.590;2023-07-28T15:15:23;2.97;;;2.39;;
14890;SDS011;7537;48.014;11.590;2023-07-28T15:20:52;2.40;;;2.47;;
14890;SDS011;7537;48.014;11.590;2023-07-28T15:26:21;2.42;;;2.18;;
14890;SDS011;7537;48.014;11.590;2023-07-28T15:31:48;2.93;;;2.89;;
14890;SDS011;7537;48.014;11.590;2023-07-28T15:37:16;2.21;;;2.33;;
14890;SDS011;7537;48.014;11.590;2023-07-28T15:42:43;2.44;;;2.55;;
14890;SDS011;7537;48.014;11.590;2023-07-28T15:48:11;4.01;;;2.59;;
14890;SDS011;7537;48.014;11.590;2023-07-28T15:53:42;2.74;;;2.28;;
14890;SDS011;7537;48.014;11.590;2023-07-28T15:59:09;2.20;;;2.12;;
14890;SDS011;7537;48.014;11.590;2023-07-28T16:04:37;2.57;;;2.51;;
14890;SDS011;7537;48.014;11.590;2023-07-28T16:10:04;2.09;;;2.22;;
14890;SDS011;7537;48.014;11.590;2023-07-28T16:15:32;2.61;;;2.68;;
14890;SDS011;7537;48.014;11.590;2023-07-28T16:21:00;3.35;;;2.04;;
14890;SDS011;7537;48.014;11.590;2023-07-28T16:26:27;3.34;;;2.69;;
14890;SDS011;7537;48.014;11.590;2023-07-28T16:31:54;3.16;;;2.87;;
14890;SDS011;7537;48.014;11.590;2023-07-28T16:37:22;1.84;;;2.02;;
14890;SDS011;7537;48.014;11.590;2023-07-28T16:42:49;2.03;;;2.14;;
14890;SDS011;7537;48.014;11.590;2023-07-28T16:48:17;2.21;;;2.30;;
14890;SDS011;7537;48.014;11.590;2023-07-28T16:53:49;2.07;;;2.21;;
14890;SDS011;7537;48.014;11.590;2023-07-28T16:59:17;2.14;;;2.13;;
14890;SDS011;7537;48.014;11.590;2023-07-28T17:04:47;2.72;;;2.49;;
14890;SDS011;7537;48.014;11.590;2023-07-28T17:10:15;2.41;;;2.44;;
14890;SDS011;7537;48.014;11.590;2023-07-28T17:15:42;2.40;;;2.21;;
14890;SDS011;7537;48.014;11.590;2023-07-28T17:21:09;2.57;;;2.29;;
14890;SDS011;7537;48.014;11.590;2023-07-28T17:26:37;2.33;;;2.38;;
14890;SDS011;7537;48.014;11.590;2023-07-28T17:32:05;2.21;;;1.96;;
14890;SDS011;7537;48.014;11.590;2023-07-28T17:37:32;2.42;;;2.43;;
14890;SDS011;7537;48.014;11.590;2023-07-28T17:43:00;2.41;;;2.44;;
14890;SDS011;7537;48.014;11.590;2023-07-28T17:48:27;4.51;;;2.99;;
14890;SDS011;7537;48.014;11.590;2023-07-28T17:54:04;2.37;;;2.47;;
14890;SDS011;7537;48.014;11.590;2023-07-28T17:59:32;2.27;;;2.37;;
14890;SDS011;7537;48.014;11.590;2023-07-28T18:04:59;2.87;;;2.96;;
14890;SDS011;7537;48.014;11.590;2023-07-28T18:10:27;5.68;;;4.35;;
14890;SDS011;7537;48.014;11.590;2023-07-28T18:15:54;4.43;;;3.62;;
14890;SDS011;7537;48.014;11.590;2023-07-28T18:21:28;5.41;;;3.76;;
14890;SDS011;7537;48.014;11.590;2023-07-28T18:26:55;3.51;;;3.58;;
14890;SDS011;7537;48.014;11.590;2023-07-28T18:32:22;3.34;;;3.40;;
14890;SDS011;7537;48.014;11.590;2023-07-28T18:37:50;8.32;;;4.05;;
14890;SDS011;7537;48.014;11.590;2023-07-28T18:43:17;4.79;;;3.46;;
14890;SDS011;7537;48.014;11.590;2023-07-28T18:48:48;4.43;;;3.94;;
14890;SDS011;7537;48.014;11.590;2023-07-28T18:54:19;4.09;;;3.99;;
14890;SDS011;7537;48.014;11.590;2023-07-28T18:59:46;5.09;;;4.18;;
14890;SDS011;7537;48.014;11.590;2023-07-28T19:05:13;3.97;;;3.85;;
14890;SDS011;7537;48.014;11.590;2023-07-28T19:10:42;3.86;;;3.53;;
14890;SDS011;7537;48.014;11.590;2023-07-28T19:16:10;5.26;;;3.60;;
14890;SDS011;7537;48.014;11.590;2023-07-28T19:21:40;4.02;;;3.60;;
14890;SDS011;7537;48.014;11.590;2023-07-28T19:27:08;3.23;;;3.21;;
14890;SDS011;7537;48.014;11.590;2023-07-28T19:32:35;3.24;;;3.13;;
14890;SDS011;7537;48.014;11.590;2023-07-28T19:38:03;3.78;;;3.79;;
14890;SDS011;7537;48.014;11.590;2023-07-28T19:43:33;4.27;;;2.91;;
14890;SDS011;7537;48.014;11.590;2023-07-28T19:49:02;4.91;;;3.48;;
14890;SDS011;7537;48.014;11.590;2023-07-28T19:54:33;3.39;;;3.29;;
14890;SDS011;7537;48.014;11.590;2023-07-28T20:00:00;4.39;;;3.49;;
14890;SDS011;7537;48.014;11.590;2023-07-28T20:05:28;3.01;;;3.10;;
14890;SDS011;7537;48.014;11.590;2023-07-28T20:10:56;3.43;;;2.73;;
14890;SDS011;7537;48.014;11.590;2023-07-28T20:16:23;2.24;;;2.25;;
14890;SDS011;7537;48.014;11.590;2023-07-28T20:21:51;2.62;;;2.31;;
14890;SDS011;7537;48.014;11.590;2023-07-28T20:27:19;3.24;;;3.29;;
14890;SDS011;7537;48.014;11.590;2023-07-28T20:32:46;3.76;;;2.33;;
14890;SDS011;7537;48.014;11.590;2023-07-28T20:38:14;2.92;;;2.15;;
14890;SDS011;7537;48.014;11.590;2023-07-28T20:43:41;2.30;;;2.30;;
14890;SDS011;7537;48.014;11.590;2023-07-28T20:49:08;1.79;;;1.94;;
14890;SDS011;7537;48.014;11.590;2023-07-28T20:54:42;2.19;;;1.93;;
14890;SDS011;7537;48.014;11.590;2023-07-28T21:00:17;2.86;;;2.42;;
14890;SDS011;7537;48.014;11.590;2023-07-28T21:05:47;2.87;;;2.87;;
14890;SDS011;7537;48.014;11.590;2023-07-28T21:11:16;2.74;;;2.28;;
14890;SDS011;7537;48.014;11.590;2023-07-28T21:16:43;2.49;;;2.56;;
14890;SDS011;7537;48.014;11.590;2023-07-28T21:22:18;2.91;;;2.30;;
14890;SDS011;7537;48.014;11.590;2023-07-28T21:27:46;1.67;;;1.68;;
14890;SDS011;7537;48.014;11.590;2023-07-28T21:33:13;3.69;;;1.91;;
14890;SDS011;7537;48.014;11.590;2023-07-28T21:39:00;3.13;;;2.46;;
14890;SDS011;7537;48.014;11.590;2023-07-28T21:44:30;4.28;;;2.43;;
14890;SDS011;7537;48.014;11.590;2023-07-28T21:49:58;1.90;;;1.94;;
14890;SDS011;7537;48.014;11.590;2023-07-28T21:55:25;1.78;;;1.79;;
14890;SDS011;7537;48.014;11.590;2023-07-28T22:00:53;4.16;;;2.61;;
14890;SDS011;7537;48.014;11.590;2023-07-28T22:06:20;2.26;;;2.38;;
14890;SDS011;7537;48.014;11.590;2023-07-28T22:11:48;2.08;;;2.17;;
14890;SDS011;7537;48.014;11.590;2023-07-28T22:17:15;1.99;;;2.10;;
14890;SDS011;7537;48.014;11.590;2023-07-28T22:22:42;1.94;;;1.97;;
14890;SDS011;7537;48.014;11.590;2023-07-28T22:28:10;5.71;;;2.45;;
14890;SDS011;7537;48.014;11.590;2023-07-28T22:33:37;4.37;;;3.29;;
14890;SDS011;7537;48.014;11.590;2023-07-28T22:39:08;2.34;;;2.54;;
14890;SDS011;7537;48.014;11.590;2023-07-28T22:44:36;2.76;;;2.85;;
14890;SDS011;7537;48.014;11.590;2023-07-28T22:50:04;2.62;;;2.24;;
14890;SDS011;7537;48.014;11.590;2023-07-28T22:55:32;2.94;;;2.36;;
14890;SDS011;7537;48.014;11.590;2023-07-28T23:01:16;2.74;;;2.76;;
14890;SDS011;7537;48.014;11.590;2023-07-28T23:06:44;2.14;;;2.21;;
14890;SDS011;7537;48.014;11.590;2023-07-28T23:12:11;2.39;;;2.46;;
14890;SDS011;7537;48.014;11.590;2023-07-28T23:17:39;2.51;;;2.69;;
14890;SDS011;7537;48.014;11.590;2023-07-28T23:23:06;2.56;;;2.23;;
14890;SDS011;7537;48.014;11.590;2023-07-28T23:28:33;2.34;;;2.41;;
14890;SDS011;7537;48.014;11.590;2023-07-28T23:34:01;2.16;;;2.12;;
14890;SDS011;7537;48.014;11.590;2023-07-28T23:39:31;2.23;;;2.31;;
14890;SDS011;7537;48.014;11.590;2023-07-28T23:44:59;2.14;;;2.29;;
14890;SDS011;7537;48.014;11.590;2023-07-28T23:50:36;2.58;;;2.47;;
14890;SDS011;7537;48.014;11.590;2023-07-28T23:56:03;2.00;;;2.10;;
